sensor_id;sensor_type;location;lat;lon;timestamp;P1;durP1;ratioP1;P2;durP2;ratioP2
48881;SDS011;57063;51.406;-2.402;2023-07-30T00:01:11;6.57;;;1.55;;
48881;SDS011;57063;51.406;-2.402;2023-07-30T00:03:37;7.63;;;1.30;;
48881;SDS011;57063;51.406;-2.402;2023-07-30T00:06:02;6.85;;;1.35;;
48881;SDS011;57063;51.406;-2.402;2023-07-30T00:08:27;7.88;;;2.17;;
48881;SDS011;57063;51.406;-2.402;2023-07-30T00:10:53;12.27;;;2.17;;
48881;SDS011;57063;51.406;-2.402;2023-07-30T00:13:18;16.35;;;2.85;;
48881;SDS011;57063;51.406;-2.402;2023-07-30T00:15:46;14.85;;;1.85;;
48881;SDS011;57063;51.406;-2.402;2023-07-30T00:18:12;9.70;;;1.75;;
48881;SDS011;57063;51.406;-2.402;2023-07-30T00:20:38;8.15;;;1.83;;
48881;SDS011;57063;51.406;-2.402;2023-07-30T00:23:03;6.20;;;1.10;;
48881;SDS011;57063;51.406;-2.402;2023-07-30T00:25:28;9.27;;;1.85;;
48881;SDS011;57063;51.406;-2.402;2023-07-30T00:27:54;6.35;;;1.30;;
48881;SDS011;57063;51.406;-2.402;2023-07-30T00:30:19;11.85;;;1.75;;
48881;SDS011;57063;51.406;-2.402;2023-07-30T00:32:44;11.70;;;1.85;;
48881;SDS011;57063;51.406;-2.402;2023-07-30T00:35:10;8.15;;;1.40;;
48881;SDS011;57063;51.406;-2.402;2023-07-30T00:37:36;8.52;;;1.63;;
48881;SDS011;57063;51.406;-2.402;2023-07-30T00:40:01;11.20;;;2.00;;
48881;SDS011;57063;51.406;-2.402;2023-07-30T00:42:28;9.80;;;1.85;;
48881;SDS011;57063;51.406;-2.402;2023-07-30T00:44:53;7.97;;;1.20;;
48881;SDS011;57063;51.406;-2.402;2023-07-30T00:47:19;7.07;;;1.83;;
48881;SDS011;57063;51.406;-2.402;2023-07-30T00:49:44;11.20;;;1.30;;
48881;SDS011;57063;51.406;-2.402;2023-07-30T00:52:10;10.27;;;2.50;;
48881;SDS011;57063;51.406;-2.402;2023-07-30T00:54:35;10.73;;;1.70;;
48881;SDS011;57063;51.406;-2.402;2023-07-30T00:57:01;13.02;;;2.40;;
48881;SDS011;57063;51.406;-2.402;2023-07-30T00:59:27;10.00;;;2.20;;
48881;SDS011;57063;51.406;-2.402;2023-07-30T01:01:52;9.05;;;1.98;;
48881;SDS011;57063;51.406;-2.402;2023-07-30T01:04:18;14.38;;;2.30;;
48881;SDS011;57063;51.406;-2.402;2023-07-30T01:06:44;9.48;;;1.80;;
48881;SDS011;57063;51.406;-2.402;2023-07-30T01:09:10;8.30;;;1.75;;
48881;SDS011;57063;51.406;-2.402;2023-07-30T01:11:36;14.63;;;3.25;;
48881;SDS011;57063;51.406;-2.402;2023-07-30T01:14:03;7.22;;;1.50;;
48881;SDS011;57063;51.406;-2.402;2023-07-30T01:16:30;7.40;;;1.42;;
48881;SDS011;57063;51.406;-2.402;2023-07-30T01:18:56;7.88;;;1.77;;
48881;SDS011;57063;51.406;-2.402;2023-07-30T01:21:24;9.25;;;1.70;;
48881;SDS011;57063;51.406;-2.402;2023-07-30T01:23:49;10.13;;;2.47;;
48881;SDS011;57063;51.406;-2.402;2023-07-30T01:26:22;11.52;;;2.78;;
48881;SDS011;57063;51.406;-2.402;2023-07-30T01:28:54;8.95;;;1.52;;
48881;SDS011;57063;51.406;-2.402;2023-07-30T01:31:23;9.70;;;1.98;;
48881;SDS011;57063;51.406;-2.402;2023-07-30T01:33:52;11.52;;;2.33;;
48881;SDS011;57063;51.406;-2.402;2023-07-30T01:36:20;12.30;;;1.73;;
48881;SDS011;57063;51.406;-2.402;2023-07-30T01:38:45;18.02;;;2.45;;
48881;SDS011;57063;51.406;-2.402;2023-07-30T01:41:12;14.80;;;1.95;;
48881;SDS011;57063;51.406;-2.402;2023-07-30T01:43:38;14.00;;;1.85;;
48881;SDS011;57063;51.406;-2.402;2023-07-30T01:46:03;8.40;;;2.20;;
48881;SDS011;57063;51.406;-2.402;2023-07-30T01:48:29;15.30;;;2.92;;
48881;SDS011;57063;51.406;-2.402;2023-07-30T01:50:54;11.68;;;2.80;;
48881;SDS011;57063;51.406;-2.402;2023-07-30T01:53:19;13.13;;;2.17;;
48881;SDS011;57063;51.406;-2.402;2023-07-30T01:55:45;12.73;;;2.53;;
48881;SDS011;57063;51.406;-2.402;2023-07-30T01:58:11;9.13;;;2.00;;
48881;SDS011;57063;51.406;-2.402;2023-07-30T02:00:38;15.18;;;2.47;;
48881;SDS011;57063;51.406;-2.402;2023-07-30T02:03:03;17.48;;;2.97;;
48881;SDS011;57063;51.406;-2.402;2023-07-30T02:05:29;14.25;;;2.83;;
48881;SDS011;57063;51.406;-2.402;2023-07-30T02:07:54;11.52;;;2.50;;
48881;SDS011;57063;51.406;-2.402;2023-07-30T02:10:20;15.45;;;1.98;;
48881;SDS011;57063;51.406;-2.402;2023-07-30T02:12:45;16.58;;;2.65;;
48881;SDS011;57063;51.406;-2.402;2023-07-30T02:15:10;17.75;;;2.95;;
48881;SDS011;57063;51.406;-2.402;2023-07-30T02:17:36;15.68;;;2.65;;
48881;SDS011;57063;51.406;-2.402;2023-07-30T02:20:01;20.75;;;2.20;;
48881;SDS011;57063;51.406;-2.402;2023-07-30T02:22:27;8.73;;;2.22;;
48881;SDS011;57063;51.406;-2.402;2023-07-30T02:24:53;13.38;;;2.40;;
48881;SDS011;57063;51.406;-2.402;2023-07-30T02:27:18;17.88;;;2.67;;
48881;SDS011;57063;51.406;-2.402;2023-07-30T02:29:44;18.30;;;2.80;;
48881;SDS011;57063;51.406;-2.402;2023-07-30T02:32:09;16.83;;;3.40;;
48881;SDS011;57063;51.406;-2.402;2023-07-30T02:34:34;21.85;;;4.25;;
48881;SDS011;57063;51.406;-2.402;2023-07-30T02:37:00;14.60;;;2.45;;
48881;SDS011;57063;51.406;-2.402;2023-07-30T02:39:25;13.93;;;2.28;;
48881;SDS011;57063;51.406;-2.402;2023-07-30T02:41:50;14.93;;;2.72;;
48881;SDS011;57063;51.406;-2.402;2023-07-30T02:44:16;16.88;;;2.85;;
48881;SDS011;57063;51.406;-2.402;2023-07-30T02:46:41;20.48;;;2.00;;
48881;SDS011;57063;51.406;-2.402;2023-07-30T02:49:06;11.90;;;1.98;;
48881;SDS011;57063;51.406;-2.402;2023-07-30T02:51:33;15.75;;;2.50;;
48881;SDS011;57063;51.406;-2.402;2023-07-30T02:53:58;11.77;;;2.45;;
48881;SDS011;57063;51.406;-2.402;2023-07-30T02:56:28;14.82;;;2.10;;
48881;SDS011;57063;51.406;-2.402;2023-07-30T02:58:53;17.27;;;2.42;;
48881;SDS011;57063;51.406;-2.402;2023-07-30T03:01:19;16.55;;;2.80;;
48881;SDS011;57063;51.406;-2.402;2023-07-30T03:03:44;15.85;;;2.00;;
48881;SDS011;57063;51.406;-2.402;2023-07-30T03:06:09;11.15;;;2.35;;
48881;SDS011;57063;51.406;-2.402;2023-07-30T03:08:35;14.85;;;2.00;;
48881;SDS011;57063;51.406;-2.402;2023-07-30T03:11:01;16.80;;;2.40;;
48881;SDS011;57063;51.406;-2.402;2023-07-30T03:13:26;19.75;;;3.40;;
48881;SDS011;57063;51.406;-2.402;2023-07-30T03:15:52;18.58;;;3.65;;
48881;SDS011;57063;51.406;-2.402;2023-07-30T03:18:17;15.77;;;2.10;;
48881;SDS011;57063;51.406;-2.402;2023-07-30T03:20:42;14.05;;;2.55;;
48881;SDS011;57063;51.406;-2.402;2023-07-30T03:23:08;17.27;;;3.17;;
48881;SDS011;57063;51.406;-2.402;2023-07-30T03:25:33;12.65;;;2.13;;
48881;SDS011;57063;51.406;-2.402;2023-07-30T03:27:58;17.17;;;2.95;;
48881;SDS011;57063;51.406;-2.402;2023-07-30T03:30:24;14.32;;;2.40;;
48881;SDS011;57063;51.406;-2.402;2023-07-30T03:32:49;16.15;;;2.50;;
48881;SDS011;57063;51.406;-2.402;2023-07-30T03:35:15;13.20;;;3.15;;
48881;SDS011;57063;51.406;-2.402;2023-07-30T03:37:40;11.57;;;2.05;;
48881;SDS011;57063;51.406;-2.402;2023-07-30T03:40:05;13.02;;;1.92;;
48881;SDS011;57063;51.406;-2.402;2023-07-30T03:42:31;18.83;;;3.60;;
48881;SDS011;57063;51.406;-2.402;2023-07-30T03:44:57;19.50;;;1.90;;
48881;SDS011;57063;51.406;-2.402;2023-07-30T03:47:22;14.43;;;3.10;;
48881;SDS011;57063;51.406;-2.402;2023-07-30T03:49:47;12.25;;;2.22;;
48881;SDS011;57063;51.406;-2.402;2023-07-30T03:52:13;14.73;;;3.40;;
48881;SDS011;57063;51.406;-2.402;2023-07-30T03:54:38;15.45;;;2.72;;
48881;SDS011;57063;51.406;-2.402;2023-07-30T03:57:03;11.70;;;2.13;;
48881;SDS011;57063;51.406;-2.402;2023-07-30T03:59:29;11.32;;;2.15;;
48881;SDS011;57063;51.406;-2.402;2023-07-30T04:01:54;11.55;;;1.90;;
48881;SDS011;57063;51.406;-2.402;2023-07-30T04:04:20;12.02;;;2.28;;
48881;SDS011;57063;51.406;-2.402;2023-07-30T04:06:45;18.52;;;2.67;;
48881;SDS011;57063;51.406;-2.402;2023-07-30T04:09:11;12.15;;;2.30;;
48881;SDS011;57063;51.406;-2.402;2023-07-30T04:11:36;12.93;;;2.88;;
48881;SDS011;57063;51.406;-2.402;2023-07-30T04:14:01;14.80;;;2.53;;
48881;SDS011;57063;51.406;-2.402;2023-07-30T04:16:29;8.35;;;2.28;;
48881;SDS011;57063;51.406;-2.402;2023-07-30T04:18:55;11.07;;;2.17;;
48881;SDS011;57063;51.406;-2.402;2023-07-30T04:21:20;12.40;;;3.05;;
48881;SDS011;57063;51.406;-2.402;2023-07-30T04:23:45;8.52;;;2.13;;
48881;SDS011;57063;51.406;-2.402;2023-07-30T04:26:11;15.57;;;2.17;;
48881;SDS011;57063;51.406;-2.402;2023-07-30T04:28:37;18.08;;;3.22;;
48881;SDS011;57063;51.406;-2.402;2023-07-30T04:31:02;9.25;;;2.15;;
48881;SDS011;57063;51.406;-2.402;2023-07-30T04:33:27;9.65;;;2.17;;
48881;SDS011;57063;51.406;-2.402;2023-07-30T04:35:53;19.02;;;2.75;;
48881;SDS011;57063;51.406;-2.402;2023-07-30T04:38:19;15.80;;;2.47;;
48881;SDS011;57063;51.406;-2.402;2023-07-30T04:40:44;9.30;;;1.85;;
48881;SDS011;57063;51.406;-2.402;2023-07-30T04:43:10;9.90;;;3.03;;
48881;SDS011;57063;51.406;-2.402;2023-07-30T04:45:35;13.32;;;2.28;;
48881;SDS011;57063;51.406;-2.402;2023-07-30T04:48:00;12.38;;;2.70;;
48881;SDS011;57063;51.406;-2.402;2023-07-30T04:50:26;14.20;;;2.30;;
48881;SDS011;57063;51.406;-2.402;2023-07-30T04:52:51;17.33;;;2.55;;
48881;SDS011;57063;51.406;-2.402;2023-07-30T04:55:17;14.18;;;2.75;;
48881;SDS011;57063;51.406;-2.402;2023-07-30T04:57:42;14.50;;;2.17;;
48881;SDS011;57063;51.406;-2.402;2023-07-30T05:00:08;9.82;;;2.00;;
48881;SDS011;57063;51.406;-2.402;2023-07-30T05:02:33;7.88;;;1.77;;
48881;SDS011;57063;51.406;-2.402;2023-07-30T05:04:59;9.18;;;2.28;;
48881;SDS011;57063;51.406;-2.402;2023-07-30T05:07:24;13.00;;;2.20;;
48881;SDS011;57063;51.406;-2.402;2023-07-30T05:09:49;13.43;;;1.80;;
48881;SDS011;57063;51.406;-2.402;2023-07-30T05:12:15;17.38;;;3.70;;
48881;SDS011;57063;51.406;-2.402;2023-07-30T05:14:40;10.85;;;2.28;;
48881;SDS011;57063;51.406;-2.402;2023-07-30T05:17:05;14.27;;;2.17;;
48881;SDS011;57063;51.406;-2.402;2023-07-30T05:19:31;11.00;;;2.20;;
48881;SDS011;57063;51.406;-2.402;2023-07-30T05:21:57;19.20;;;3.17;;
48881;SDS011;57063;51.406;-2.402;2023-07-30T05:24:24;9.35;;;2.20;;
48881;SDS011;57063;51.406;-2.402;2023-07-30T05:26:49;11.70;;;2.35;;
48881;SDS011;57063;51.406;-2.402;2023-07-30T05:29:15;13.68;;;2.13;;
48881;SDS011;57063;51.406;-2.402;2023-07-30T05:31:40;11.05;;;2.03;;
48881;SDS011;57063;51.406;-2.402;2023-07-30T05:34:05;12.77;;;2.80;;
48881;SDS011;57063;51.406;-2.402;2023-07-30T05:36:31;17.10;;;2.50;;
48881;SDS011;57063;51.406;-2.402;2023-07-30T05:38:56;15.73;;;3.20;;
48881;SDS011;57063;51.406;-2.402;2023-07-30T05:41:22;17.42;;;2.10;;
48881;SDS011;57063;51.406;-2.402;2023-07-30T05:43:47;14.18;;;2.25;;
48881;SDS011;57063;51.406;-2.402;2023-07-30T05:46:13;11.25;;;2.15;;
48881;SDS011;57063;51.406;-2.402;2023-07-30T05:48:39;12.77;;;2.30;;
48881;SDS011;57063;51.406;-2.402;2023-07-30T05:51:04;9.93;;;2.53;;
48881;SDS011;57063;51.406;-2.402;2023-07-30T05:53:30;10.63;;;2.30;;
48881;SDS011;57063;51.406;-2.402;2023-07-30T05:55:55;17.95;;;3.00;;
48881;SDS011;57063;51.406;-2.402;2023-07-30T05:58:20;11.88;;;2.50;;
48881;SDS011;57063;51.406;-2.402;2023-07-30T06:00:46;13.50;;;2.70;;
48881;SDS011;57063;51.406;-2.402;2023-07-30T06:03:11;11.65;;;2.10;;
48881;SDS011;57063;51.406;-2.402;2023-07-30T06:05:40;9.90;;;1.92;;
48881;SDS011;57063;51.406;-2.402;2023-07-30T06:08:06;12.60;;;2.00;;
48881;SDS011;57063;51.406;-2.402;2023-07-30T06:10:34;7.80;;;2.55;;
48881;SDS011;57063;51.406;-2.402;2023-07-30T06:13:06;12.43;;;2.70;;
48881;SDS011;57063;51.406;-2.402;2023-07-30T06:15:32;13.95;;;2.97;;
48881;SDS011;57063;51.406;-2.402;2023-07-30T06:17:58;10.57;;;2.50;;
48881;SDS011;57063;51.406;-2.402;2023-07-30T06:20:23;15.82;;;2.67;;
48881;SDS011;57063;51.406;-2.402;2023-07-30T06:22:48;11.45;;;2.95;;
48881;SDS011;57063;51.406;-2.402;2023-07-30T06:25:14;13.20;;;2.42;;
48881;SDS011;57063;51.406;-2.402;2023-07-30T06:27:39;14.13;;;2.25;;
48881;SDS011;57063;51.406;-2.402;2023-07-30T06:30:05;21.25;;;2.50;;
48881;SDS011;57063;51.406;-2.402;2023-07-30T06:32:30;11.27;;;1.98;;
48881;SDS011;57063;51.406;-2.402;2023-07-30T06:34:56;16.52;;;2.80;;
48881;SDS011;57063;51.406;-2.402;2023-07-30T06:37:21;12.93;;;2.63;;
48881;SDS011;57063;51.406;-2.402;2023-07-30T06:39:47;15.48;;;2.20;;
48881;SDS011;57063;51.406;-2.402;2023-07-30T06:42:12;9.40;;;2.53;;
48881;SDS011;57063;51.406;-2.402;2023-07-30T06:44:37;10.57;;;2.35;;
48881;SDS011;57063;51.406;-2.402;2023-07-30T06:47:03;7.60;;;1.83;;
48881;SDS011;57063;51.406;-2.402;2023-07-30T06:49:28;8.27;;;1.75;;
48881;SDS011;57063;51.406;-2.402;2023-07-30T06:51:54;16.88;;;2.65;;
48881;SDS011;57063;51.406;-2.402;2023-07-30T06:54:20;18.60;;;3.15;;
48881;SDS011;57063;51.406;-2.402;2023-07-30T06:56:45;14.18;;;2.15;;
48881;SDS011;57063;51.406;-2.402;2023-07-30T06:59:11;8.65;;;2.55;;
48881;SDS011;57063;51.406;-2.402;2023-07-30T07:01:36;14.13;;;2.63;;
48881;SDS011;57063;51.406;-2.402;2023-07-30T07:04:01;9.77;;;2.03;;
48881;SDS011;57063;51.406;-2.402;2023-07-30T07:06:27;14.32;;;2.13;;
48881;SDS011;57063;51.406;-2.402;2023-07-30T07:08:52;14.80;;;2.78;;
48881;SDS011;57063;51.406;-2.402;2023-07-30T07:11:17;10.07;;;2.63;;
48881;SDS011;57063;51.406;-2.402;2023-07-30T07:13:43;9.63;;;2.40;;
48881;SDS011;57063;51.406;-2.402;2023-07-30T07:16:08;15.95;;;2.83;;
48881;SDS011;57063;51.406;-2.402;2023-07-30T07:18:33;10.05;;;2.55;;
48881;SDS011;57063;51.406;-2.402;2023-07-30T07:20:59;12.38;;;3.30;;
48881;SDS011;57063;51.406;-2.402;2023-07-30T07:23:24;15.60;;;2.92;;
48881;SDS011;57063;51.406;-2.402;2023-07-30T07:25:50;15.07;;;2.88;;
48881;SDS011;57063;51.406;-2.402;2023-07-30T07:28:17;10.75;;;2.60;;
48881;SDS011;57063;51.406;-2.402;2023-07-30T07:30:43;18.40;;;2.72;;
48881;SDS011;57063;51.406;-2.402;2023-07-30T07:33:09;17.75;;;2.58;;
48881;SDS011;57063;51.406;-2.402;2023-07-30T07:35:37;13.15;;;2.22;;
48881;SDS011;57063;51.406;-2.402;2023-07-30T07:38:05;23.98;;;2.67;;
48881;SDS011;57063;51.406;-2.402;2023-07-30T07:40:35;11.18;;;3.42;;
48881;SDS011;57063;51.406;-2.402;2023-07-30T07:43:04;9.15;;;2.95;;
48881;SDS011;57063;51.406;-2.402;2023-07-30T07:45:29;13.95;;;2.60;;
48881;SDS011;57063;51.406;-2.402;2023-07-30T07:47:55;10.75;;;2.53;;
48881;SDS011;57063;51.406;-2.402;2023-07-30T07:50:20;12.25;;;2.78;;
48881;SDS011;57063;51.406;-2.402;2023-07-30T07:52:45;12.77;;;2.70;;
48881;SDS011;57063;51.406;-2.402;2023-07-30T07:55:11;13.38;;;2.75;;
48881;SDS011;57063;51.406;-2.402;2023-07-30T07:57:36;13.10;;;3.63;;
48881;SDS011;57063;51.406;-2.402;2023-07-30T08:00:01;14.05;;;2.83;;
48881;SDS011;57063;51.406;-2.402;2023-07-30T08:02:30;10.00;;;2.08;;
48881;SDS011;57063;51.406;-2.402;2023-07-30T08:04:55;13.48;;;2.67;;
48881;SDS011;57063;51.406;-2.402;2023-07-30T08:07:21;11.45;;;2.60;;
48881;SDS011;57063;51.406;-2.402;2023-07-30T08:09:46;11.75;;;2.92;;
48881;SDS011;57063;51.406;-2.402;2023-07-30T08:12:11;8.65;;;2.58;;
48881;SDS011;57063;51.406;-2.402;2023-07-30T08:14:37;14.10;;;2.35;;
48881;SDS011;57063;51.406;-2.402;2023-07-30T08:17:03;12.02;;;2.33;;
48881;SDS011;57063;51.406;-2.402;2023-07-30T08:19:29;17.50;;;2.67;;
48881;SDS011;57063;51.406;-2.402;2023-07-30T08:21:55;16.55;;;2.70;;
48881;SDS011;57063;51.406;-2.402;2023-07-30T08:24:21;10.95;;;2.88;;
48881;SDS011;57063;51.406;-2.402;2023-07-30T08:26:47;10.80;;;2.45;;
48881;SDS011;57063;51.406;-2.402;2023-07-30T08:29:13;9.50;;;2.13;;
48881;SDS011;57063;51.406;-2.402;2023-07-30T08:31:40;4.05;;;1.20;;
48881;SDS011;57063;51.406;-2.402;2023-07-30T08:34:06;11.63;;;2.60;;
48881;SDS011;57063;51.406;-2.402;2023-07-30T08:36:32;8.57;;;1.70;;
48881;SDS011;57063;51.406;-2.402;2023-07-30T08:38:57;6.43;;;1.52;;
48881;SDS011;57063;51.406;-2.402;2023-07-30T08:41:23;6.70;;;1.60;;
48881;SDS011;57063;51.406;-2.402;2023-07-30T08:43:48;4.82;;;1.45;;
48881;SDS011;57063;51.406;-2.402;2023-07-30T08:46:14;8.10;;;1.58;;
48881;SDS011;57063;51.406;-2.402;2023-07-30T08:48:40;6.93;;;1.35;;
48881;SDS011;57063;51.406;-2.402;2023-07-30T08:51:06;6.88;;;2.72;;
48881;SDS011;57063;51.406;-2.402;2023-07-30T08:53:31;3.78;;;1.10;;
48881;SDS011;57063;51.406;-2.402;2023-07-30T08:55:57;6.30;;;1.40;;
48881;SDS011;57063;51.406;-2.402;2023-07-30T08:58:25;4.47;;;1.23;;
48881;SDS011;57063;51.406;-2.402;2023-07-30T09:00:52;4.88;;;1.00;;
48881;SDS011;57063;51.406;-2.402;2023-07-30T09:03:20;6.18;;;1.42;;
48881;SDS011;57063;51.406;-2.402;2023-07-30T09:05:48;4.90;;;1.00;;
48881;SDS011;57063;51.406;-2.402;2023-07-30T09:08:14;5.10;;;0.98;;
48881;SDS011;57063;51.406;-2.402;2023-07-30T09:10:39;3.05;;;0.60;;
48881;SDS011;57063;51.406;-2.402;2023-07-30T09:13:05;1.77;;;0.40;;
48881;SDS011;57063;51.406;-2.402;2023-07-30T09:15:37;0.95;;;0.38;;
48881;SDS011;57063;51.406;-2.402;2023-07-30T09:18:04;2.30;;;0.77;;
48881;SDS011;57063;51.406;-2.402;2023-07-30T09:20:36;1.42;;;0.50;;
48881;SDS011;57063;51.406;-2.402;2023-07-30T09:23:08;2.15;;;0.70;;
48881;SDS011;57063;51.406;-2.402;2023-07-30T09:25:35;3.58;;;0.70;;
48881;SDS011;57063;51.406;-2.402;2023-07-30T09:28:01;2.85;;;0.60;;
48881;SDS011;57063;51.406;-2.402;2023-07-30T09:30:27;1.50;;;0.70;;
48881;SDS011;57063;51.406;-2.402;2023-07-30T09:32:54;2.35;;;0.30;;
48881;SDS011;57063;51.406;-2.402;2023-07-30T09:35:21;1.45;;;0.57;;
48881;SDS011;57063;51.406;-2.402;2023-07-30T09:37:49;1.40;;;0.40;;
48881;SDS011;57063;51.406;-2.402;2023-07-30T09:40:29;0.57;;;0.40;;
48881;SDS011;57063;51.406;-2.402;2023-07-30T09:42:56;0.40;;;0.20;;
48881;SDS011;57063;51.406;-2.402;2023-07-30T09:45:23;0.38;;;0.22;;
48881;SDS011;57063;51.406;-2.402;2023-07-30T09:47:50;1.23;;;0.20;;
48881;SDS011;57063;51.406;-2.402;2023-07-30T09:50:16;0.25;;;0.15;;
48881;SDS011;57063;51.406;-2.402;2023-07-30T09:52:42;0.93;;;0.32;;
48881;SDS011;57063;51.406;-2.402;2023-07-30T09:55:08;1.65;;;0.40;;
48881;SDS011;57063;51.406;-2.402;2023-07-30T09:57:34;3.72;;;0.88;;
48881;SDS011;57063;51.406;-2.402;2023-07-30T10:00:01;2.33;;;0.80;;
48881;SDS011;57063;51.406;-2.402;2023-07-30T10:02:28;2.88;;;0.85;;
48881;SDS011;57063;51.406;-2.402;2023-07-30T10:04:59;3.88;;;0.80;;
48881;SDS011;57063;51.406;-2.402;2023-07-30T10:07:25;2.80;;;0.82;;
48881;SDS011;57063;51.406;-2.402;2023-07-30T10:09:54;5.68;;;0.85;;
48881;SDS011;57063;51.406;-2.402;2023-07-30T10:12:24;1.80;;;0.73;;
48881;SDS011;57063;51.406;-2.402;2023-07-30T10:14:53;4.95;;;0.90;;
48881;SDS011;57063;51.406;-2.402;2023-07-30T10:17:19;5.22;;;1.67;;
48881;SDS011;57063;51.406;-2.402;2023-07-30T10:19:47;3.78;;;0.85;;
48881;SDS011;57063;51.406;-2.402;2023-07-30T10:24:39;4.63;;;1.58;;
48881;SDS011;57063;51.406;-2.402;2023-07-30T10:27:23;3.55;;;1.13;;
48881;SDS011;57063;51.406;-2.402;2023-07-30T10:29:51;3.40;;;1.17;;
48881;SDS011;57063;51.406;-2.402;2023-07-30T10:33:16;6.05;;;1.50;;
48881;SDS011;57063;51.406;-2.402;2023-07-30T10:35:44;9.32;;;1.38;;
48881;SDS011;57063;51.406;-2.402;2023-07-30T10:38:29;3.58;;;0.90;;
48881;SDS011;57063;51.406;-2.402;2023-07-30T10:43:30;4.18;;;0.90;;
48881;SDS011;57063;51.406;-2.402;2023-07-30T10:45:59;8.38;;;1.25;;
48881;SDS011;57063;51.406;-2.402;2023-07-30T10:48:31;2.90;;;0.80;;
48881;SDS011;57063;51.406;-2.402;2023-07-30T10:51:01;2.38;;;0.77;;
48881;SDS011;57063;51.406;-2.402;2023-07-30T10:53:28;5.47;;;0.80;;
48881;SDS011;57063;51.406;-2.402;2023-07-30T10:55:53;1.85;;;0.70;;
48881;SDS011;57063;51.406;-2.402;2023-07-30T10:58:20;2.90;;;0.85;;
48881;SDS011;57063;51.406;-2.402;2023-07-30T11:00:48;2.00;;;0.63;;
48881;SDS011;57063;51.406;-2.402;2023-07-30T11:03:14;3.55;;;0.70;;
48881;SDS011;57063;51.406;-2.402;2023-07-30T11:05:39;2.83;;;0.68;;
48881;SDS011;57063;51.406;-2.402;2023-07-30T11:08:05;2.13;;;0.77;;
48881;SDS011;57063;51.406;-2.402;2023-07-30T11:10:30;1.33;;;0.65;;
48881;SDS011;57063;51.406;-2.402;2023-07-30T11:12:55;1.88;;;0.60;;
48881;SDS011;57063;51.406;-2.402;2023-07-30T11:15:23;1.85;;;0.70;;
48881;SDS011;57063;51.406;-2.402;2023-07-30T11:17:51;2.55;;;0.50;;
48881;SDS011;57063;51.406;-2.402;2023-07-30T11:20:26;1.63;;;0.40;;
48881;SDS011;57063;51.406;-2.402;2023-07-30T11:22:52;1.45;;;0.40;;
48881;SDS011;57063;51.406;-2.402;2023-07-30T11:25:18;0.43;;;0.25;;
48881;SDS011;57063;51.406;-2.402;2023-07-30T11:27:46;1.00;;;0.30;;
48881;SDS011;57063;51.406;-2.402;2023-07-30T11:30:12;2.60;;;0.43;;
48881;SDS011;57063;51.406;-2.402;2023-07-30T11:32:38;0.45;;;0.20;;
48881;SDS011;57063;51.406;-2.402;2023-07-30T11:35:04;2.08;;;0.32;;
48881;SDS011;57063;51.406;-2.402;2023-07-30T11:37:31;0.40;;;0.30;;
48881;SDS011;57063;51.406;-2.402;2023-07-30T11:39:57;1.13;;;0.20;;
48881;SDS011;57063;51.406;-2.402;2023-07-30T11:42:23;2.35;;;0.17;;
48881;SDS011;57063;51.406;-2.402;2023-07-30T11:44:48;1.02;;;0.30;;
48881;SDS011;57063;51.406;-2.402;2023-07-30T11:47:20;0.40;;;0.13;;
48881;SDS011;57063;51.406;-2.402;2023-07-30T11:49:56;0.13;;;0.00;;
48881;SDS011;57063;51.406;-2.402;2023-07-30T11:52:22;1.27;;;0.20;;
48881;SDS011;57063;51.406;-2.402;2023-07-30T11:54:48;0.65;;;0.10;;
48881;SDS011;57063;51.406;-2.402;2023-07-30T11:57:32;0.68;;;0.10;;
48881;SDS011;57063;51.406;-2.402;2023-07-30T11:59:58;0.30;;;0.10;;
48881;SDS011;57063;51.406;-2.402;2023-07-30T12:02:24;0.17;;;0.10;;
48881;SDS011;57063;51.406;-2.402;2023-07-30T12:04:49;1.98;;;0.10;;
48881;SDS011;57063;51.406;-2.402;2023-07-30T12:07:21;0.20;;;0.13;;
48881;SDS011;57063;51.406;-2.402;2023-07-30T12:09:49;0.10;;;0.00;;
48881;SDS011;57063;51.406;-2.402;2023-07-30T12:12:14;0.20;;;0.00;;
48881;SDS011;57063;51.406;-2.402;2023-07-30T12:17:10;0.10;;;0.00;;
48881;SDS011;57063;51.406;-2.402;2023-07-30T12:19:35;0.10;;;0.00;;
48881;SDS011;57063;51.406;-2.402;2023-07-30T12:22:01;0.15;;;0.10;;
48881;SDS011;57063;51.406;-2.402;2023-07-30T12:24:27;0.47;;;0.00;;
48881;SDS011;57063;51.406;-2.402;2023-07-30T12:26:52;0.47;;;0.13;;
48881;SDS011;57063;51.406;-2.402;2023-07-30T12:29:17;0.10;;;0.00;;
48881;SDS011;57063;51.406;-2.402;2023-07-30T12:31:43;0.03;;;0.00;;
48881;SDS011;57063;51.406;-2.402;2023-07-30T12:34:09;0.65;;;0.00;;
48881;SDS011;57063;51.406;-2.402;2023-07-30T12:36:34;0.08;;;0.00;;
48881;SDS011;57063;51.406;-2.402;2023-07-30T12:39:00;2.03;;;0.00;;
48881;SDS011;57063;51.406;-2.402;2023-07-30T12:41:25;1.65;;;0.03;;
48881;SDS011;57063;51.406;-2.402;2023-07-30T12:43:54;0.63;;;0.10;;
48881;SDS011;57063;51.406;-2.402;2023-07-30T12:46:23;1.58;;;0.10;;
48881;SDS011;57063;51.406;-2.402;2023-07-30T12:48:51;1.02;;;0.25;;
48881;SDS011;57063;51.406;-2.402;2023-07-30T12:51:16;1.08;;;0.10;;
48881;SDS011;57063;51.406;-2.402;2023-07-30T12:53:42;1.25;;;0.32;;
48881;SDS011;57063;51.406;-2.402;2023-07-30T12:56:07;1.33;;;0.32;;
48881;SDS011;57063;51.406;-2.402;2023-07-30T12:58:32;3.33;;;0.70;;
48881;SDS011;57063;51.406;-2.402;2023-07-30T13:00:58;3.88;;;0.90;;
48881;SDS011;57063;51.406;-2.402;2023-07-30T13:03:23;3.20;;;0.75;;
48881;SDS011;57063;51.406;-2.402;2023-07-30T13:05:48;2.10;;;0.82;;
48881;SDS011;57063;51.406;-2.402;2023-07-30T13:08:14;7.05;;;1.50;;
48881;SDS011;57063;51.406;-2.402;2023-07-30T13:10:39;6.20;;;1.05;;
48881;SDS011;57063;51.406;-2.402;2023-07-30T13:13:04;6.35;;;1.42;;
48881;SDS011;57063;51.406;-2.402;2023-07-30T13:15:30;7.43;;;1.70;;
48881;SDS011;57063;51.406;-2.402;2023-07-30T13:17:55;4.70;;;1.58;;
48881;SDS011;57063;51.406;-2.402;2023-07-30T13:20:21;4.95;;;1.38;;
48881;SDS011;57063;51.406;-2.402;2023-07-30T13:27:57;5.05;;;1.80;;
48881;SDS011;57063;51.406;-2.402;2023-07-30T13:30:26;2.83;;;1.67;;
48881;SDS011;57063;51.406;-2.402;2023-07-30T13:32:51;6.43;;;1.83;;
48881;SDS011;57063;51.406;-2.402;2023-07-30T13:35:17;8.30;;;1.65;;
48881;SDS011;57063;51.406;-2.402;2023-07-30T13:37:42;4.80;;;1.70;;
48881;SDS011;57063;51.406;-2.402;2023-07-30T13:40:08;14.75;;;5.75;;
48881;SDS011;57063;51.406;-2.402;2023-07-30T13:42:34;11.98;;;5.10;;
48881;SDS011;57063;51.406;-2.402;2023-07-30T13:52:45;5.78;;;2.30;;
48881;SDS011;57063;51.406;-2.402;2023-07-30T13:55:12;6.88;;;2.30;;
48881;SDS011;57063;51.406;-2.402;2023-07-30T13:57:37;9.73;;;2.08;;
48881;SDS011;57063;51.406;-2.402;2023-07-30T14:00:03;5.90;;;2.30;;
48881;SDS011;57063;51.406;-2.402;2023-07-30T14:02:29;7.90;;;3.30;;
48881;SDS011;57063;51.406;-2.402;2023-07-30T14:04:54;10.50;;;2.38;;
48881;SDS011;57063;51.406;-2.402;2023-07-30T14:07:19;6.63;;;1.98;;
48881;SDS011;57063;51.406;-2.402;2023-07-30T14:09:45;11.30;;;2.80;;
48881;SDS011;57063;51.406;-2.402;2023-07-30T14:12:10;9.95;;;3.03;;
48881;SDS011;57063;51.406;-2.402;2023-07-30T14:14:35;10.93;;;3.35;;
48881;SDS011;57063;51.406;-2.402;2023-07-30T14:17:01;8.80;;;3.00;;
48881;SDS011;57063;51.406;-2.402;2023-07-30T14:19:31;9.35;;;3.05;;
48881;SDS011;57063;51.406;-2.402;2023-07-30T14:21:56;12.77;;;3.45;;
48881;SDS011;57063;51.406;-2.402;2023-07-30T14:24:22;15.10;;;3.60;;
48881;SDS011;57063;51.406;-2.402;2023-07-30T14:26:48;11.60;;;4.30;;
48881;SDS011;57063;51.406;-2.402;2023-07-30T14:29:13;12.25;;;3.70;;
48881;SDS011;57063;51.406;-2.402;2023-07-30T14:31:39;11.20;;;4.03;;
48881;SDS011;57063;51.406;-2.402;2023-07-30T14:34:04;9.68;;;3.88;;
48881;SDS011;57063;51.406;-2.402;2023-07-30T14:36:29;11.20;;;3.95;;
48881;SDS011;57063;51.406;-2.402;2023-07-30T14:38:55;13.68;;;3.88;;
48881;SDS011;57063;51.406;-2.402;2023-07-30T14:41:38;12.45;;;4.00;;
48881;SDS011;57063;51.406;-2.402;2023-07-30T14:44:32;19.67;;;4.10;;